createdAt,value
2019-02-05T00:00:45.456Z,8.31
2019-02-05T00:03:47.181Z,8.31
2019-02-05T00:06:48.600Z,8.25
2019-02-05T00:09:50.143Z,8.25
2019-02-05T00:12:51.573Z,8.19
2019-02-05T00:15:53.143Z,8.13
2019-02-05T00:18:54.655Z,8.13
2019-02-05T00:21:57.036Z,8.06
2019-02-05T00:24:58.454Z,8.06
2019-02-05T00:28:00.249Z,8.00
2019-02-05T00:31:02.008Z,8.00
2019-02-05T00:34:03.913Z,7.94
2019-02-05T00:37:05.537Z,7.87
2019-02-05T00:40:10.421Z,7.87
2019-02-05T00:43:12.180Z,7.81
2019-02-05T00:46:13.686Z,7.81
2019-02-05T00:49:15.154Z,7.75
2019-02-05T00:52:16.607Z,7.75
2019-02-05T00:55:18.319Z,7.69
2019-02-05T00:58:19.731Z,7.69
2019-02-05T01:01:21.127Z,7.62
2019-02-05T01:04:22.658Z,7.56
2019-02-05T01:07:24.446Z,7.56
2019-02-05T01:10:26.734Z,7.50
2019-02-05T01:13:28.605Z,7.50
2019-02-05T01:16:30.004Z,7.44
2019-02-05T01:19:31.490Z,7.44
2019-02-05T01:22:32.960Z,7.37
2019-02-05T01:25:34.348Z,7.37
2019-02-05T01:28:35.795Z,7.31
2019-02-05T01:31:37.234Z,7.31
2019-02-05T01:34:38.982Z,7.25
2019-02-05T01:37:40.438Z,7.25
2019-02-05T01:40:41.947Z,7.19
2019-02-05T01:43:43.463Z,7.19
2019-02-05T01:46:45.026Z,7.19
2019-02-05T01:49:46.439Z,7.12
2019-02-05T01:52:47.813Z,7.12
2019-02-05T01:55:49.300Z,7.06
2019-02-05T01:58:50.723Z,7.06
2019-02-05T02:01:52.201Z,7.00
2019-02-05T02:04:53.644Z,7.00
2019-02-05T02:07:55.498Z,6.94
2019-02-05T02:10:56.949Z,6.94
2019-02-05T02:13:58.466Z,6.94
2019-02-05T02:16:59.856Z,6.87
2019-02-05T02:20:01.845Z,6.87
2019-02-05T02:23:03.497Z,6.81
2019-02-05T02:26:04.948Z,6.81
2019-02-05T02:29:07.426Z,6.75
2019-02-05T02:32:09.019Z,6.75
2019-02-05T02:35:12.270Z,6.75
2019-02-05T02:38:13.693Z,6.69
2019-02-05T02:41:16.240Z,6.62
2019-02-05T02:44:17.678Z,6.62
2019-02-05T02:47:19.140Z,6.62
2019-02-05T02:50:20.596Z,6.56
2019-02-05T02:53:22.505Z,6.56
2019-02-05T02:56:23.961Z,6.50
2019-02-05T02:59:25.442Z,6.44
2019-02-05T03:02:27.008Z,6.44
2019-02-05T03:05:28.483Z,6.37
2019-02-05T03:08:29.964Z,6.37
2019-02-05T03:11:31.450Z,6.31
2019-02-05T03:14:32.913Z,6.31
2019-02-05T03:17:34.731Z,6.25
2019-02-05T03:20:36.170Z,6.19
2019-02-05T03:23:37.595Z,6.19
2019-02-05T03:26:39.085Z,6.12
2019-02-05T03:29:40.503Z,6.12
2019-02-05T03:32:42.225Z,6.06
2019-02-05T03:35:43.599Z,6.06
2019-02-05T03:38:45.006Z,6.00
2019-02-05T03:41:46.433Z,6.00
2019-02-05T03:44:47.913Z,5.94
2019-02-05T03:47:49.689Z,5.94
2019-02-05T03:50:56.696Z,5.87
2019-02-05T03:54:19.815Z,5.81
2019-02-05T03:58:19.706Z,5.81
2019-02-05T04:02:27.605Z,5.75
2019-02-05T04:06:23.697Z,5.75
2019-02-05T04:10:34.261Z,5.69
2019-02-05T04:14:31.658Z,5.62
2019-02-05T04:18:21.948Z,5.62
2019-02-05T04:22:22.370Z,5.56
2019-02-05T04:26:23.693Z,5.56
2019-02-05T04:30:33.746Z,5.50
2019-02-05T04:34:42.470Z,5.50
2019-02-05T04:38:48.392Z,5.44
2019-02-05T04:43:06.487Z,5.44
2019-02-05T04:47:11.594Z,5.37
2019-02-05T04:51:07.636Z,5.31
2019-02-05T04:54:52.618Z,5.31
2019-02-05T04:58:54.679Z,5.25
2019-02-05T05:03:14.347Z,5.25
2019-02-05T05:07:16.464Z,5.19
2019-02-05T05:10:17.876Z,5.12
2019-02-05T05:13:19.475Z,5.12
2019-02-05T05:16:21.319Z,5.06
2019-02-05T05:19:22.688Z,5.06
2019-02-05T05:22:24.123Z,5.00
2019-02-05T05:25:25.970Z,5.00
2019-02-05T05:28:27.910Z,4.94
2019-02-05T05:31:29.769Z,4.94
2019-02-05T05:34:31.193Z,4.94
2019-02-05T05:37:32.682Z,4.87
2019-02-05T05:40:35.481Z,4.87
2019-02-05T05:43:36.894Z,4.81
2019-02-05T05:46:38.355Z,4.81
2019-02-05T05:49:39.860Z,4.75
2019-02-05T05:52:41.330Z,4.75
2019-02-05T05:55:42.940Z,4.75
2019-02-05T05:58:44.372Z,4.69
2019-02-05T06:01:45.754Z,4.69
2019-02-05T06:04:47.176Z,4.62
2019-02-05T06:07:48.657Z,4.62
2019-02-05T06:10:50.081Z,4.56
2019-02-05T06:13:51.511Z,4.56
2019-02-05T06:16:52.884Z,4.50
2019-02-05T06:19:54.784Z,4.50
2019-02-05T06:22:56.227Z,4.50
2019-02-05T06:25:57.646Z,4.44
2019-02-05T06:28:59.128Z,4.44
2019-02-05T06:32:00.695Z,4.37
2019-02-05T06:35:02.090Z,4.37
2019-02-05T06:38:03.537Z,4.31
2019-02-05T06:41:05.077Z,4.31
2019-02-05T06:44:06.967Z,4.31
2019-02-05T06:47:08.381Z,4.25
2019-02-05T06:50:10.832Z,4.25
2019-02-05T06:53:12.341Z,4.25
2019-02-05T06:56:13.738Z,4.19
2019-02-05T06:59:15.336Z,4.19
2019-02-05T07:02:16.723Z,4.19
2019-02-05T07:05:18.252Z,4.19
2019-02-05T07:08:19.624Z,4.19
2019-02-05T07:11:21.118Z,4.19
2019-02-05T07:14:22.546Z,4.19
2019-02-05T07:17:24.010Z,4.19
2019-02-05T07:20:25.516Z,4.19
2019-02-05T07:23:27.347Z,4.19
2019-02-05T07:26:28.946Z,4.19
2019-02-05T07:29:30.403Z,4.19
2019-02-05T07:32:31.741Z,4.19
2019-02-05T07:35:33.100Z,4.19
2019-02-05T07:38:34.569Z,4.25
2019-02-05T07:41:35.954Z,4.25
2019-02-05T07:44:40.008Z,4.31
2019-02-05T07:47:40.579Z,4.31
2019-02-05T07:50:42.042Z,4.44
2019-02-05T07:53:43.531Z,4.50
2019-02-05T07:56:44.967Z,4.62
2019-02-05T07:59:47.148Z,4.87
2019-02-05T08:02:48.768Z,5.44
2019-02-05T08:05:50.170Z,5.81
2019-02-05T08:08:51.548Z,6.00
2019-02-05T08:11:52.997Z,6.19
2019-02-05T08:14:54.461Z,6.12
2019-02-05T08:17:55.935Z,5.87
2019-02-05T08:20:57.297Z,5.81
2019-02-05T08:23:58.854Z,5.81
2019-02-05T08:27:00.231Z,5.81
2019-02-05T08:30:01.571Z,5.75
2019-02-05T08:33:03.441Z,5.75
2019-02-05T08:36:04.965Z,5.69
2019-02-05T08:39:10.162Z,5.69
2019-02-05T08:42:12.633Z,5.75
2019-02-05T08:45:17.786Z,5.75
2019-02-05T08:48:19.274Z,5.75
2019-02-05T08:51:20.743Z,5.87
2019-02-05T08:54:22.186Z,5.87
2019-02-05T08:57:23.592Z,6.19
2019-02-05T09:00:30.940Z,6.31
2019-02-05T09:03:32.486Z,6.31
2019-02-05T09:06:35.471Z,6.25
2019-02-05T09:09:37.218Z,6.37
2019-02-05T09:12:38.803Z,6.75
2019-02-05T09:15:40.189Z,6.94
2019-02-05T09:18:41.633Z,7.00
2019-02-05T09:21:43.090Z,7.06
2019-02-05T09:24:44.492Z,7.19
2019-02-05T09:27:46.194Z,7.31
2019-02-05T09:30:48.123Z,7.50
2019-02-05T09:33:49.721Z,7.62
2019-02-05T09:36:51.631Z,7.75
2019-02-05T09:39:53.136Z,7.94
2019-02-05T09:42:54.560Z,8.06
2019-02-05T09:45:56.024Z,8.31
2019-02-05T09:48:57.421Z,8.50
2019-02-05T09:51:58.852Z,8.69
2019-02-05T09:55:00.417Z,8.88
2019-02-05T09:58:01.835Z,9.06
2019-02-05T10:01:03.231Z,9.25
2019-02-05T10:04:04.623Z,9.50
2019-02-05T10:07:06.133Z,9.69
2019-02-05T10:10:10.913Z,9.88
2019-02-05T10:13:12.402Z,10.06
2019-02-05T10:16:14.047Z,10.25
2019-02-05T10:19:15.455Z,10.38
2019-02-05T10:22:16.907Z,10.56
2019-02-05T10:25:18.720Z,10.75
2019-02-05T10:28:20.305Z,10.94
2019-02-05T10:31:21.967Z,11.12
2019-02-05T10:34:33.584Z,11.38
2019-02-05T10:37:26.589Z,11.63
2019-02-05T10:40:28.434Z,11.88
2019-02-05T10:43:29.955Z,12.06
2019-02-05T10:46:31.855Z,12.19
2019-02-05T10:49:33.377Z,12.44
2019-02-05T10:52:34.903Z,12.56
2019-02-05T10:55:36.959Z,12.75
2019-02-05T10:58:38.376Z,13.00
2019-02-05T11:01:39.961Z,13.19
2019-02-05T11:04:41.431Z,13.38
2019-02-05T11:07:42.973Z,13.62
2019-02-05T11:10:44.428Z,13.88
2019-02-05T11:13:45.931Z,14.19
2019-02-05T11:16:47.437Z,14.56
2019-02-05T11:19:49.136Z,15.44
2019-02-05T11:22:50.955Z,16.06
2019-02-05T11:25:52.414Z,15.94
2019-02-05T11:28:53.966Z,15.75
2019-02-05T11:31:55.868Z,15.81
2019-02-05T11:34:57.564Z,15.94
2019-02-05T11:37:59.022Z,16.25
2019-02-05T11:41:00.441Z,16.94
2019-02-05T11:44:01.896Z,18.00
2019-02-05T11:47:03.938Z,18.87
2019-02-05T11:50:06.620Z,19.56
2019-02-05T11:53:09.070Z,20.00
2019-02-05T11:56:10.488Z,20.50
2019-02-05T11:59:12.404Z,22.06
2019-02-05T12:02:13.791Z,22.62
2019-02-05T12:05:15.360Z,23.06
2019-02-05T12:08:18.720Z,22.87
2019-02-05T12:11:22.373Z,22.75
2019-02-05T12:14:23.774Z,22.81
2019-02-05T12:17:25.181Z,22.69
2019-02-05T12:20:26.627Z,22.31
2019-02-05T12:23:28.133Z,21.87
2019-02-05T12:26:29.705Z,21.62
2019-02-05T12:29:31.317Z,21.62
2019-02-05T12:32:32.793Z,21.75
2019-02-05T12:35:34.383Z,21.94
2019-02-05T12:38:36.553Z,22.13
2019-02-05T12:41:37.984Z,22.44
2019-02-05T12:44:39.529Z,22.62
2019-02-05T12:47:40.978Z,22.87
2019-02-05T12:50:42.482Z,23.19
2019-02-05T12:53:43.921Z,23.31
2019-02-05T12:56:45.349Z,23.81
2019-02-05T12:59:46.886Z,24.00
2019-02-05T13:02:49.021Z,24.12
2019-02-05T13:05:50.503Z,23.75
2019-02-05T13:08:51.936Z,23.75
2019-02-05T13:11:53.333Z,23.62
2019-02-05T13:14:54.789Z,23.56
2019-02-05T13:17:56.324Z,23.56
2019-02-05T13:20:58.080Z,23.69
2019-02-05T13:23:59.619Z,23.87
2019-02-05T13:27:01.156Z,24.12
2019-02-05T13:30:02.691Z,24.31
2019-02-05T13:33:06.278Z,24.50
2019-02-05T13:36:11.871Z,24.56
2019-02-05T13:39:14.363Z,24.44
2019-02-05T13:42:15.895Z,24.63
2019-02-05T13:45:22.355Z,24.94
2019-02-05T13:48:23.829Z,25.69
2019-02-05T13:51:26.231Z,26.75
2019-02-05T13:54:28.208Z,27.81
2019-02-05T13:57:29.761Z,28.69
2019-02-05T14:00:37.435Z,29.12
2019-02-05T14:03:39.443Z,28.62
2019-02-05T14:06:41.056Z,28.44
2019-02-05T14:09:42.514Z,27.75
2019-02-05T14:12:43.922Z,27.37
2019-02-05T14:15:51.034Z,27.06
2019-02-05T14:18:55.251Z,27.06
2019-02-05T14:21:56.668Z,26.37
2019-02-05T14:24:58.193Z,25.88
2019-02-05T14:27:59.726Z,25.37
2019-02-05T14:31:01.313Z,25.12
2019-02-05T14:34:03.331Z,25.12
2019-02-05T14:37:05.232Z,24.87
2019-02-05T14:40:10.038Z,24.69
2019-02-05T14:43:11.692Z,24.75
2019-02-05T14:46:13.653Z,25.19
2019-02-05T14:49:15.193Z,25.94
2019-02-05T14:52:16.573Z,26.56
2019-02-05T14:55:18.148Z,26.37
2019-02-05T14:58:20.146Z,25.81
2019-02-05T15:01:21.701Z,25.69
2019-02-05T15:04:23.168Z,25.69
2019-02-05T15:07:24.923Z,25.44
2019-02-05T15:10:26.806Z,25.31
2019-02-05T15:13:28.338Z,25.19
2019-02-05T15:16:29.782Z,24.75
2019-02-05T15:19:32.561Z,25.06
2019-02-05T15:22:34.971Z,25.44
2019-02-05T15:25:37.732Z,25.19
2019-02-05T15:28:39.221Z,24.81
2019-02-05T15:31:40.618Z,24.50
2019-02-05T15:34:43.019Z,24.25
2019-02-05T15:37:44.463Z,24.44
2019-02-05T15:40:46.012Z,24.56
2019-02-05T15:43:47.527Z,24.56
2019-02-05T15:46:49.057Z,24.37
2019-02-05T15:49:50.492Z,24.19
2019-02-05T15:52:52.008Z,24.25
2019-02-05T15:55:53.402Z,24.12
2019-02-05T15:58:55.163Z,24.19
2019-02-05T16:02:05.998Z,24.19
2019-02-05T16:05:01.312Z,23.94
2019-02-05T16:08:03.033Z,23.62
2019-02-05T16:11:05.118Z,23.06
2019-02-05T16:14:07.070Z,23.06
2019-02-05T16:17:08.636Z,22.56
2019-02-05T16:20:12.095Z,22.13
2019-02-05T16:23:13.658Z,21.81
2019-02-05T16:26:15.093Z,21.44
2019-02-05T16:29:16.553Z,21.25
2019-02-05T16:32:18.267Z,21.31
2019-02-05T16:35:20.201Z,21.25
2019-02-05T16:38:21.737Z,21.31
2019-02-05T16:41:23.158Z,21.25
2019-02-05T16:44:24.727Z,21.12
2019-02-05T16:47:26.489Z,21.00
2019-02-05T16:50:34.333Z,20.81
2019-02-05T16:53:35.869Z,20.75
2019-02-05T16:56:37.497Z,20.62
2019-02-05T16:59:38.959Z,20.50
2019-02-05T17:02:40.477Z,20.19
2019-02-05T17:05:42.775Z,19.87
2019-02-05T17:08:44.723Z,19.56
2019-02-05T17:11:46.414Z,19.31
2019-02-05T17:14:47.906Z,19.12
2019-02-05T17:17:50.966Z,18.94
2019-02-05T17:20:52.913Z,18.75
2019-02-05T17:23:54.548Z,18.62
2019-02-05T17:26:56.615Z,18.44
2019-02-05T17:29:59.903Z,18.25
2019-02-05T17:33:01.372Z,18.06
2019-02-05T17:36:02.950Z,17.87
2019-02-05T17:39:06.754Z,17.75
2019-02-05T17:42:09.486Z,17.62
2019-02-05T17:45:24.534Z,17.44
2019-02-05T17:48:26.322Z,17.31
2019-02-05T17:51:27.736Z,17.12
2019-02-05T17:54:29.271Z,17.00
2019-02-05T17:57:31.175Z,16.87
2019-02-05T18:00:41.437Z,16.75
2019-02-05T18:03:43.095Z,16.62
2019-02-05T18:06:46.243Z,16.50
2019-02-05T18:09:47.752Z,16.37
2019-02-05T18:12:49.268Z,16.25
2019-02-05T18:15:50.966Z,16.12
2019-02-05T18:18:52.717Z,16.00
2019-02-05T18:21:54.192Z,15.88
2019-02-05T18:24:55.870Z,15.81
2019-02-05T18:27:57.359Z,15.69
2019-02-05T18:30:58.904Z,15.56
2019-02-05T18:34:00.599Z,15.44
2019-02-05T18:37:02.274Z,15.38
2019-02-05T18:40:03.929Z,15.25
2019-02-05T18:43:05.615Z,15.13
2019-02-05T18:46:08.332Z,15.06
2019-02-05T18:49:10.650Z,14.94
2019-02-05T18:52:12.511Z,14.87
2019-02-05T18:55:14.368Z,14.75
2019-02-05T18:58:15.955Z,14.69
2019-02-05T19:01:17.444Z,14.56
2019-02-05T19:04:19.004Z,14.50
2019-02-05T19:07:20.559Z,14.38
2019-02-05T19:10:24.678Z,14.31
2019-02-05T19:13:26.347Z,14.19
2019-02-05T19:16:28.424Z,14.13
2019-02-05T19:19:30.614Z,14.00
2019-02-05T19:22:33.127Z,13.94
2019-02-05T19:25:56.338Z,13.81
2019-02-05T19:28:58.235Z,13.75
2019-02-05T19:31:59.924Z,13.69
2019-02-05T19:35:01.937Z,13.56
2019-02-05T19:38:03.700Z,13.50
2019-02-05T19:41:05.308Z,13.38
2019-02-05T19:44:08.300Z,13.31
2019-02-05T19:47:18.917Z,13.25
2019-02-05T19:50:20.616Z,13.19
2019-02-05T19:53:22.502Z,13.06
2019-02-05T19:56:25.693Z,13.00
2019-02-05T19:59:27.371Z,12.94
2019-02-05T20:02:29.280Z,12.88
2019-02-05T20:05:30.818Z,12.81
2019-02-05T20:08:32.919Z,12.69
2019-02-05T20:11:35.804Z,12.63
2019-02-05T20:14:37.341Z,12.56
2019-02-05T20:17:39.282Z,12.44
2019-02-05T20:20:40.917Z,12.37
2019-02-05T20:23:42.482Z,12.31
2019-02-05T20:26:44.053Z,12.25
2019-02-05T20:29:45.775Z,12.19
2019-02-05T20:32:47.376Z,12.06
2019-02-05T20:35:48.994Z,12.00
2019-02-05T20:38:50.877Z,11.94
2019-02-05T20:41:53.108Z,11.88
2019-02-05T20:44:55.203Z,11.81
2019-02-05T20:47:56.766Z,11.75
2019-02-05T20:51:00.962Z,11.69
2019-02-05T20:54:01.902Z,11.56
2019-02-05T20:57:04.857Z,11.56
2019-02-05T21:00:17.877Z,11.50
2019-02-05T21:03:19.812Z,11.44
2019-02-05T21:06:21.514Z,11.38
2019-02-05T21:09:23.826Z,11.25
2019-02-05T21:12:25.497Z,11.19
2019-02-05T21:15:27.599Z,11.12
2019-02-05T21:18:29.152Z,11.06
2019-02-05T21:21:30.672Z,11.00
2019-02-05T21:24:32.208Z,10.94
2019-02-05T21:27:33.919Z,10.88
2019-02-05T21:30:35.491Z,10.81
2019-02-05T21:33:37.063Z,10.81
2019-02-05T21:36:38.545Z,10.75
2019-02-05T21:39:40.710Z,10.69
2019-02-05T21:42:42.322Z,10.63
2019-02-05T21:45:43.887Z,10.56
2019-02-05T21:48:45.793Z,10.50
2019-02-05T21:51:47.333Z,10.44
2019-02-05T21:54:49.137Z,10.38
2019-02-05T21:57:51.237Z,10.31
2019-02-05T22:00:52.743Z,10.25
2019-02-05T22:03:54.948Z,10.19
2019-02-05T22:06:56.703Z,10.19
2019-02-05T22:09:58.459Z,10.13
2019-02-05T22:13:00.243Z,10.00
2019-02-05T22:16:02.496Z,10.00
2019-02-05T22:19:03.997Z,9.94
2019-02-05T22:22:06.275Z,9.88
2019-02-05T22:25:12.542Z,9.81
2019-02-05T22:28:14.146Z,9.75
2019-02-05T22:31:15.760Z,9.75
2019-02-05T22:34:17.227Z,9.69
2019-02-05T22:37:20.110Z,9.63
2019-02-05T22:40:24.637Z,9.56
2019-02-05T22:43:26.181Z,9.50
2019-02-05T22:46:27.615Z,9.44
2019-02-05T22:49:29.069Z,9.44
2019-02-05T22:52:30.731Z,9.38
2019-02-05T22:55:32.666Z,9.31
2019-02-05T22:58:34.208Z,9.25
2019-02-05T23:01:48.237Z,9.19
2019-02-05T23:05:32.373Z,9.13
2019-02-05T23:08:33.989Z,9.06
2019-02-05T23:12:35.006Z,9.00
2019-02-05T23:15:37.975Z,9.00
2019-02-05T23:18:39.397Z,8.94
2019-02-05T23:21:40.803Z,8.88
2019-02-05T23:24:42.402Z,8.81
2019-02-05T23:27:43.982Z,8.81
2019-02-05T23:30:45.713Z,8.75
2019-02-05T23:33:47.297Z,8.69
2019-02-05T23:36:49.358Z,8.69
2019-02-05T23:39:51.332Z,8.63
2019-02-05T23:42:53.495Z,8.63
2019-02-05T23:46:01.456Z,8.56
2019-02-05T23:48:58.156Z,8.50
2019-02-05T23:51:59.643Z,8.50
2019-02-05T23:55:01.135Z,8.44
2019-02-05T23:58:02.822Z,8.38
